sensor_id;sensor_type;location;lat;lon;timestamp;temperature;humidity
9965;DHT22;5023;53.554;9.964;2022-07-10T00:01:35;14.80;99.90
9965;DHT22;5023;53.554;9.964;2022-07-10T00:06:38;14.80;99.90
9965;DHT22;5023;53.554;9.964;2022-07-10T00:11:43;14.90;99.90
9965;DHT22;5023;53.554;9.964;2022-07-10T00:16:46;14.90;99.90
9965;DHT22;5023;53.554;9.964;2022-07-10T00:21:48;14.90;99.90
9965;DHT22;5023;53.554;9.964;2022-07-10T00:26:54;14.90;99.90
9965;DHT22;5023;53.554;9.964;2022-07-10T00:31:59;15.00;99.90
9965;DHT22;5023;53.554;9.964;2022-07-10T00:37:09;15.00;99.90
9965;DHT22;5023;53.554;9.964;2022-07-10T00:42:15;14.90;99.90
9965;DHT22;5023;53.554;9.964;2022-07-10T00:47:19;14.90;99.90
9965;DHT22;5023;53.554;9.964;2022-07-10T00:52:22;14.80;99.90
9965;DHT22;5023;53.554;9.964;2022-07-10T00:57:28;14.80;99.90
9965;DHT22;5023;53.554;9.964;2022-07-10T01:02:31;14.80;99.90
9965;DHT22;5023;53.554;9.964;2022-07-10T01:07:33;14.70;99.90
9965;DHT22;5023;53.554;9.964;2022-07-10T01:12:37;14.60;99.90
9965;DHT22;5023;53.554;9.964;2022-07-10T01:17:40;14.70;99.90
9965;DHT22;5023;53.554;9.964;2022-07-10T01:22:46;14.70;99.90
9965;DHT22;5023;53.554;9.964;2022-07-10T01:27:50;14.60;99.90
9965;DHT22;5023;53.554;9.964;2022-07-10T01:32:53;14.60;99.90
9965;DHT22;5023;53.554;9.964;2022-07-10T01:37:57;14.50;99.90
9965;DHT22;5023;53.554;9.964;2022-07-10T01:42:59;14.60;99.90
9965;DHT22;5023;53.554;9.964;2022-07-10T01:48:02;14.60;99.90
9965;DHT22;5023;53.554;9.964;2022-07-10T01:53:07;14.60;99.90
9965;DHT22;5023;53.554;9.964;2022-07-10T01:58:12;14.50;99.90
9965;DHT22;5023;53.554;9.964;2022-07-10T02:03:15;14.40;99.90
9965;DHT22;5023;53.554;9.964;2022-07-10T02:08:38;14.40;99.90
9965;DHT22;5023;53.554;9.964;2022-07-10T02:13:40;14.50;99.90
9965;DHT22;5023;53.554;9.964;2022-07-10T02:18:43;14.50;99.90
9965;DHT22;5023;53.554;9.964;2022-07-10T02:23:47;14.50;99.90
9965;DHT22;5023;53.554;9.964;2022-07-10T02:28:49;14.50;99.90
9965;DHT22;5023;53.554;9.964;2022-07-10T02:33:51;14.50;99.90
9965;DHT22;5023;53.554;9.964;2022-07-10T02:38:56;14.60;99.90
9965;DHT22;5023;53.554;9.964;2022-07-10T02:43:58;14.60;99.90
9965;DHT22;5023;53.554;9.964;2022-07-10T02:49:00;14.60;99.90
9965;DHT22;5023;53.554;9.964;2022-07-10T02:54:04;14.60;99.90
9965;DHT22;5023;53.554;9.964;2022-07-10T02:59:11;14.70;99.90
9965;DHT22;5023;53.554;9.964;2022-07-10T03:04:16;14.70;99.90
9965;DHT22;5023;53.554;9.964;2022-07-10T03:09:19;14.60;99.90
9965;DHT22;5023;53.554;9.964;2022-07-10T03:14:21;14.60;99.90
9965;DHT22;5023;53.554;9.964;2022-07-10T03:19:23;14.60;99.90
9965;DHT22;5023;53.554;9.964;2022-07-10T03:24:27;14.60;99.90
9965;DHT22;5023;53.554;9.964;2022-07-10T03:29:29;14.60;99.90
9965;DHT22;5023;53.554;9.964;2022-07-10T03:34:31;14.60;99.90
9965;DHT22;5023;53.554;9.964;2022-07-10T03:39:36;14.60;99.90
9965;DHT22;5023;53.554;9.964;2022-07-10T03:44:38;14.70;99.90
9965;DHT22;5023;53.554;9.964;2022-07-10T03:49:40;14.70;99.90
9965;DHT22;5023;53.554;9.964;2022-07-10T03:54:44;14.80;99.90
9965;DHT22;5023;53.554;9.964;2022-07-10T03:59:46;14.70;99.90
9965;DHT22;5023;53.554;9.964;2022-07-10T04:04:48;14.60;99.90
9965;DHT22;5023;53.554;9.964;2022-07-10T04:09:51;14.60;99.90
9965;DHT22;5023;53.554;9.964;2022-07-10T04:14:53;14.70;99.90
9965;DHT22;5023;53.554;9.964;2022-07-10T04:19:56;14.60;99.90
9965;DHT22;5023;53.554;9.964;2022-07-10T04:25:00;14.70;99.90
9965;DHT22;5023;53.554;9.964;2022-07-10T04:30:03;14.70;99.90
9965;DHT22;5023;53.554;9.964;2022-07-10T04:35:06;14.80;99.90
9965;DHT22;5023;53.554;9.964;2022-07-10T04:40:11;14.80;99.90
9965;DHT22;5023;53.554;9.964;2022-07-10T04:45:13;14.80;99.90
9965;DHT22;5023;53.554;9.964;2022-07-10T04:50:16;14.80;99.90
9965;DHT22;5023;53.554;9.964;2022-07-10T04:55:20;14.80;99.90
9965;DHT22;5023;53.554;9.964;2022-07-10T05:00:22;14.80;99.90
9965;DHT22;5023;53.554;9.964;2022-07-10T05:05:24;14.90;99.90
9965;DHT22;5023;53.554;9.964;2022-07-10T05:10:28;14.90;99.90
9965;DHT22;5023;53.554;9.964;2022-07-10T05:15:30;15.00;99.90
9965;DHT22;5023;53.554;9.964;2022-07-10T05:20:32;15.00;99.90
9965;DHT22;5023;53.554;9.964;2022-07-10T05:25:37;15.00;99.90
9965;DHT22;5023;53.554;9.964;2022-07-10T05:30:39;14.90;99.90
9965;DHT22;5023;53.554;9.964;2022-07-10T05:35:41;15.10;99.90
9965;DHT22;5023;53.554;9.964;2022-07-10T05:40:45;15.20;99.90
9965;DHT22;5023;53.554;9.964;2022-07-10T05:45:47;15.30;99.90
9965;DHT22;5023;53.554;9.964;2022-07-10T05:50:50;15.30;99.90
9965;DHT22;5023;53.554;9.964;2022-07-10T05:55:59;15.30;99.90
9965;DHT22;5023;53.554;9.964;2022-07-10T06:01:01;15.30;99.90
9965;DHT22;5023;53.554;9.964;2022-07-10T06:06:03;15.40;99.90
9965;DHT22;5023;53.554;9.964;2022-07-10T06:11:07;15.50;99.90
9965;DHT22;5023;53.554;9.964;2022-07-10T06:16:09;15.60;99.90
9965;DHT22;5023;53.554;9.964;2022-07-10T06:21:12;15.60;99.90
9965;DHT22;5023;53.554;9.964;2022-07-10T06:26:16;15.60;99.90
9965;DHT22;5023;53.554;9.964;2022-07-10T06:31:18;15.70;99.90
9965;DHT22;5023;53.554;9.964;2022-07-10T06:36:24;15.80;99.90
9965;DHT22;5023;53.554;9.964;2022-07-10T06:41:30;15.80;99.90
9965;DHT22;5023;53.554;9.964;2022-07-10T06:46:32;16.00;99.90
9965;DHT22;5023;53.554;9.964;2022-07-10T06:51:35;16.10;99.90
9965;DHT22;5023;53.554;9.964;2022-07-10T06:56:39;16.10;99.90
9965;DHT22;5023;53.554;9.964;2022-07-10T07:01:41;16.20;99.90
9965;DHT22;5023;53.554;9.964;2022-07-10T07:06:44;16.20;99.90
9965;DHT22;5023;53.554;9.964;2022-07-10T07:11:47;16.20;99.90
9965;DHT22;5023;53.554;9.964;2022-07-10T07:16:50;16.30;99.90
9965;DHT22;5023;53.554;9.964;2022-07-10T07:22:01;16.30;99.90
9965;DHT22;5023;53.554;9.964;2022-07-10T07:27:22;16.40;99.90
9965;DHT22;5023;53.554;9.964;2022-07-10T07:32:25;16.60;99.90
9965;DHT22;5023;53.554;9.964;2022-07-10T07:37:37;16.70;99.90
9965;DHT22;5023;53.554;9.964;2022-07-10T07:42:42;16.90;99.90
9965;DHT22;5023;53.554;9.964;2022-07-10T07:47:46;17.00;99.90
9965;DHT22;5023;53.554;9.964;2022-07-10T07:52:48;17.20;99.90
9965;DHT22;5023;53.554;9.964;2022-07-10T07:57:53;17.40;99.90
9965;DHT22;5023;53.554;9.964;2022-07-10T08:02:59;17.50;99.90
9965;DHT22;5023;53.554;9.964;2022-07-10T08:08:01;17.60;99.90
9965;DHT22;5023;53.554;9.964;2022-07-10T08:13:10;18.00;99.90
9965;DHT22;5023;53.554;9.964;2022-07-10T08:18:13;17.90;99.90
9965;DHT22;5023;53.554;9.964;2022-07-10T08:23:15;17.70;99.90
9965;DHT22;5023;53.554;9.964;2022-07-10T08:28:22;17.70;99.90
9965;DHT22;5023;53.554;9.964;2022-07-10T08:33:27;17.80;99.90
9965;DHT22;5023;53.554;9.964;2022-07-10T08:38:30;17.80;99.90
9965;DHT22;5023;53.554;9.964;2022-07-10T08:43:49;17.90;99.90
9965;DHT22;5023;53.554;9.964;2022-07-10T08:49:09;18.10;99.90
9965;DHT22;5023;53.554;9.964;2022-07-10T08:54:14;18.20;99.90
9965;DHT22;5023;53.554;9.964;2022-07-10T08:59:19;18.00;99.90
9965;DHT22;5023;53.554;9.964;2022-07-10T09:04:24;17.80;99.90
9965;DHT22;5023;53.554;9.964;2022-07-10T09:09:30;17.90;99.90
9965;DHT22;5023;53.554;9.964;2022-07-10T09:14:34;17.90;99.90
9965;DHT22;5023;53.554;9.964;2022-07-10T09:19:42;18.00;99.90
9965;DHT22;5023;53.554;9.964;2022-07-10T09:24:51;18.20;99.90
9965;DHT22;5023;53.554;9.964;2022-07-10T09:30:00;18.40;99.90
9965;DHT22;5023;53.554;9.964;2022-07-10T09:35:05;18.40;99.90
9965;DHT22;5023;53.554;9.964;2022-07-10T09:40:27;18.50;99.90
9965;DHT22;5023;53.554;9.964;2022-07-10T09:45:31;18.40;99.90
9965;DHT22;5023;53.554;9.964;2022-07-10T09:50:34;18.40;99.90
9965;DHT22;5023;53.554;9.964;2022-07-10T09:55:37;18.60;99.90
9965;DHT22;5023;53.554;9.964;2022-07-10T10:00:48;18.80;99.90
9965;DHT22;5023;53.554;9.964;2022-07-10T10:05:54;18.60;99.90
9965;DHT22;5023;53.554;9.964;2022-07-10T10:10:57;18.80;99.90
9965;DHT22;5023;53.554;9.964;2022-07-10T10:16:02;19.00;99.90
9965;DHT22;5023;53.554;9.964;2022-07-10T10:21:05;18.90;99.90
9965;DHT22;5023;53.554;9.964;2022-07-10T10:26:09;19.10;99.10
9965;DHT22;5023;53.554;9.964;2022-07-10T10:31:15;19.20;97.00
9965;DHT22;5023;53.554;9.964;2022-07-10T10:36:46;19.30;94.60
9965;DHT22;5023;53.554;9.964;2022-07-10T10:41:51;19.20;95.60
9965;DHT22;5023;53.554;9.964;2022-07-10T10:46:57;19.20;96.20
9965;DHT22;5023;53.554;9.964;2022-07-10T10:52:03;19.20;96.20
9965;DHT22;5023;53.554;9.964;2022-07-10T10:57:15;19.40;94.80
9965;DHT22;5023;53.554;9.964;2022-07-10T11:02:24;19.30;94.60
9965;DHT22;5023;53.554;9.964;2022-07-10T11:08:01;19.40;92.00
9965;DHT22;5023;53.554;9.964;2022-07-10T11:13:04;19.70;90.40
9965;DHT22;5023;53.554;9.964;2022-07-10T11:18:10;19.50;91.30
9965;DHT22;5023;53.554;9.964;2022-07-10T11:23:35;19.50;92.00
9965;DHT22;5023;53.554;9.964;2022-07-10T11:28:49;19.70;92.20
9965;DHT22;5023;53.554;9.964;2022-07-10T11:33:54;19.60;92.80
9965;DHT22;5023;53.554;9.964;2022-07-10T11:38:57;19.80;92.70
9965;DHT22;5023;53.554;9.964;2022-07-10T11:44:01;19.40;92.30
9965;DHT22;5023;53.554;9.964;2022-07-10T11:49:07;19.40;92.80
9965;DHT22;5023;53.554;9.964;2022-07-10T11:54:14;19.40;91.70
9965;DHT22;5023;53.554;9.964;2022-07-10T11:59:16;19.70;92.00
9965;DHT22;5023;53.554;9.964;2022-07-10T12:04:24;20.10;90.30
9965;DHT22;5023;53.554;9.964;2022-07-10T12:09:27;20.70;88.50
9965;DHT22;5023;53.554;9.964;2022-07-10T12:14:29;20.50;87.30
9965;DHT22;5023;53.554;9.964;2022-07-10T12:19:38;20.30;89.10
9965;DHT22;5023;53.554;9.964;2022-07-10T12:24:41;20.10;90.20
9965;DHT22;5023;53.554;9.964;2022-07-10T12:29:43;20.00;90.40
9965;DHT22;5023;53.554;9.964;2022-07-10T12:35:03;19.80;91.60
9965;DHT22;5023;53.554;9.964;2022-07-10T12:40:09;20.20;93.50
9965;DHT22;5023;53.554;9.964;2022-07-10T12:45:13;20.20;92.60
9965;DHT22;5023;53.554;9.964;2022-07-10T12:50:17;20.20;92.60
9965;DHT22;5023;53.554;9.964;2022-07-10T12:55:21;20.00;93.90
9965;DHT22;5023;53.554;9.964;2022-07-10T13:00:24;20.40;93.00
9965;DHT22;5023;53.554;9.964;2022-07-10T13:05:31;20.30;92.50
9965;DHT22;5023;53.554;9.964;2022-07-10T13:10:33;20.00;91.80
9965;DHT22;5023;53.554;9.964;2022-07-10T13:15:37;19.90;92.30
9965;DHT22;5023;53.554;9.964;2022-07-10T13:20:48;20.30;91.70
9965;DHT22;5023;53.554;9.964;2022-07-10T13:25:52;20.30;90.40
9965;DHT22;5023;53.554;9.964;2022-07-10T13:30:54;20.10;91.70
9965;DHT22;5023;53.554;9.964;2022-07-10T13:35:59;20.20;92.20
9965;DHT22;5023;53.554;9.964;2022-07-10T13:41:03;19.80;92.60
9965;DHT22;5023;53.554;9.964;2022-07-10T13:46:07;19.80;93.30
9965;DHT22;5023;53.554;9.964;2022-07-10T13:51:13;19.80;93.90
9965;DHT22;5023;53.554;9.964;2022-07-10T13:56:15;19.80;95.30
9965;DHT22;5023;53.554;9.964;2022-07-10T14:01:18;19.80;95.00
9965;DHT22;5023;53.554;9.964;2022-07-10T14:06:22;19.80;95.60
9965;DHT22;5023;53.554;9.964;2022-07-10T14:11:24;20.10;95.40
9965;DHT22;5023;53.554;9.964;2022-07-10T14:16:28;20.30;94.10
9965;DHT22;5023;53.554;9.964;2022-07-10T14:21:32;20.60;94.00
9965;DHT22;5023;53.554;9.964;2022-07-10T14:26:34;21.40;92.60
9965;DHT22;5023;53.554;9.964;2022-07-10T14:31:36;21.20;91.70
9965;DHT22;5023;53.554;9.964;2022-07-10T14:36:41;21.10;92.20
9965;DHT22;5023;53.554;9.964;2022-07-10T14:41:45;20.60;93.20
9965;DHT22;5023;53.554;9.964;2022-07-10T14:46:47;20.30;92.90
9965;DHT22;5023;53.554;9.964;2022-07-10T14:51:51;20.30;93.90
9965;DHT22;5023;53.554;9.964;2022-07-10T14:56:53;20.30;93.60
9965;DHT22;5023;53.554;9.964;2022-07-10T15:01:56;20.30;94.20
9965;DHT22;5023;53.554;9.964;2022-07-10T15:07:00;20.20;95.00
9965;DHT22;5023;53.554;9.964;2022-07-10T15:12:02;20.30;95.80
9965;DHT22;5023;53.554;9.964;2022-07-10T15:17:05;20.10;95.50
9965;DHT22;5023;53.554;9.964;2022-07-10T15:22:08;20.10;96.10
9965;DHT22;5023;53.554;9.964;2022-07-10T15:27:11;20.00;96.00
9965;DHT22;5023;53.554;9.964;2022-07-10T15:32:14;19.90;96.50
9965;DHT22;5023;53.554;9.964;2022-07-10T15:37:18;20.50;95.30
9965;DHT22;5023;53.554;9.964;2022-07-10T15:42:23;20.60;94.00
9965;DHT22;5023;53.554;9.964;2022-07-10T15:47:26;20.20;95.20
9965;DHT22;5023;53.554;9.964;2022-07-10T15:52:29;19.90;95.80
9965;DHT22;5023;53.554;9.964;2022-07-10T15:57:32;19.60;96.40
9965;DHT22;5023;53.554;9.964;2022-07-10T16:02:34;19.80;95.50
9965;DHT22;5023;53.554;9.964;2022-07-10T16:07:38;20.00;95.10
9965;DHT22;5023;53.554;9.964;2022-07-10T16:12:40;19.80;95.30
9965;DHT22;5023;53.554;9.964;2022-07-10T16:17:42;19.50;95.70
9965;DHT22;5023;53.554;9.964;2022-07-10T16:22:47;19.60;96.70
9965;DHT22;5023;53.554;9.964;2022-07-10T16:27:49;19.60;96.40
9965;DHT22;5023;53.554;9.964;2022-07-10T16:32:51;19.40;97.20
9965;DHT22;5023;53.554;9.964;2022-07-10T16:37:55;19.20;98.60
9965;DHT22;5023;53.554;9.964;2022-07-10T16:42:57;19.30;99.70
9965;DHT22;5023;53.554;9.964;2022-07-10T16:48:01;19.30;99.70
9965;DHT22;5023;53.554;9.964;2022-07-10T16:53:05;19.10;99.90
9965;DHT22;5023;53.554;9.964;2022-07-10T16:58:08;18.90;99.90
9965;DHT22;5023;53.554;9.964;2022-07-10T17:03:10;18.90;99.90
9965;DHT22;5023;53.554;9.964;2022-07-10T17:08:14;18.70;99.90
9965;DHT22;5023;53.554;9.964;2022-07-10T17:13:17;18.60;99.90
9965;DHT22;5023;53.554;9.964;2022-07-10T17:18:20;18.70;99.90
9965;DHT22;5023;53.554;9.964;2022-07-10T17:23:25;18.70;99.90
9965;DHT22;5023;53.554;9.964;2022-07-10T17:28:30;18.60;99.90
9965;DHT22;5023;53.554;9.964;2022-07-10T17:33:32;18.40;99.90
9965;DHT22;5023;53.554;9.964;2022-07-10T17:38:37;18.40;99.90
9965;DHT22;5023;53.554;9.964;2022-07-10T17:43:40;18.50;99.90
9965;DHT22;5023;53.554;9.964;2022-07-10T17:48:42;18.50;99.90
9965;DHT22;5023;53.554;9.964;2022-07-10T17:53:46;18.40;99.90
9965;DHT22;5023;53.554;9.964;2022-07-10T17:58:49;18.20;99.90
9965;DHT22;5023;53.554;9.964;2022-07-10T18:03:52;18.20;99.90
9965;DHT22;5023;53.554;9.964;2022-07-10T18:08:55;18.10;99.90
9965;DHT22;5023;53.554;9.964;2022-07-10T18:13:59;18.10;99.90
9965;DHT22;5023;53.554;9.964;2022-07-10T18:19:01;18.20;99.90
9965;DHT22;5023;53.554;9.964;2022-07-10T18:24:06;18.10;99.90
9965;DHT22;5023;53.554;9.964;2022-07-10T18:29:08;17.90;99.90
9965;DHT22;5023;53.554;9.964;2022-07-10T18:34:11;17.80;99.90
9965;DHT22;5023;53.554;9.964;2022-07-10T18:39:32;17.70;99.90
9965;DHT22;5023;53.554;9.964;2022-07-10T18:44:35;17.70;99.90
9965;DHT22;5023;53.554;9.964;2022-07-10T18:49:40;17.60;99.90
9965;DHT22;5023;53.554;9.964;2022-07-10T18:54:45;17.70;99.90
9965;DHT22;5023;53.554;9.964;2022-07-10T18:59:49;17.80;99.90
9965;DHT22;5023;53.554;9.964;2022-07-10T19:04:52;17.60;99.90
9965;DHT22;5023;53.554;9.964;2022-07-10T19:09:55;17.50;99.90
9965;DHT22;5023;53.554;9.964;2022-07-10T19:14:58;17.50;99.90
9965;DHT22;5023;53.554;9.964;2022-07-10T19:20:01;17.50;99.90
9965;DHT22;5023;53.554;9.964;2022-07-10T19:25:05;17.40;99.90
9965;DHT22;5023;53.554;9.964;2022-07-10T19:30:09;17.20;99.90
9965;DHT22;5023;53.554;9.964;2022-07-10T19:35:17;17.10;99.90
9965;DHT22;5023;53.554;9.964;2022-07-10T19:40:22;17.10;99.90
9965;DHT22;5023;53.554;9.964;2022-07-10T19:45:24;17.10;99.90
9965;DHT22;5023;53.554;9.964;2022-07-10T19:50:29;17.10;99.90
9965;DHT22;5023;53.554;9.964;2022-07-10T19:55:34;17.00;99.90
9965;DHT22;5023;53.554;9.964;2022-07-10T20:00:39;16.90;99.90
9965;DHT22;5023;53.554;9.964;2022-07-10T20:05:41;16.80;99.90
9965;DHT22;5023;53.554;9.964;2022-07-10T20:10:45;16.80;99.90
9965;DHT22;5023;53.554;9.964;2022-07-10T20:15:49;16.60;99.90
9965;DHT22;5023;53.554;9.964;2022-07-10T20:20:53;16.60;99.90
9965;DHT22;5023;53.554;9.964;2022-07-10T20:26:03;16.50;99.90
9965;DHT22;5023;53.554;9.964;2022-07-10T20:31:05;16.50;99.90
9965;DHT22;5023;53.554;9.964;2022-07-10T20:36:07;16.50;99.90
9965;DHT22;5023;53.554;9.964;2022-07-10T20:41:27;16.40;99.90
9965;DHT22;5023;53.554;9.964;2022-07-10T20:46:32;16.30;99.90
9965;DHT22;5023;53.554;9.964;2022-07-10T20:51:35;16.30;99.90
9965;DHT22;5023;53.554;9.964;2022-07-10T20:56:40;16.20;99.90
9965;DHT22;5023;53.554;9.964;2022-07-10T21:01:46;16.30;99.90
9965;DHT22;5023;53.554;9.964;2022-07-10T21:06:49;16.20;99.90
9965;DHT22;5023;53.554;9.964;2022-07-10T21:11:52;16.20;99.90
9965;DHT22;5023;53.554;9.964;2022-07-10T21:16:55;16.00;99.90
9965;DHT22;5023;53.554;9.964;2022-07-10T21:22:01;15.90;99.90
9965;DHT22;5023;53.554;9.964;2022-07-10T21:27:08;15.80;99.90
9965;DHT22;5023;53.554;9.964;2022-07-10T21:32:11;15.80;99.90
9965;DHT22;5023;53.554;9.964;2022-07-10T21:37:13;15.80;99.90
9965;DHT22;5023;53.554;9.964;2022-07-10T21:42:19;15.80;99.90
9965;DHT22;5023;53.554;9.964;2022-07-10T21:47:22;15.80;99.90
9965;DHT22;5023;53.554;9.964;2022-07-10T21:52:25;15.60;99.90
9965;DHT22;5023;53.554;9.964;2022-07-10T21:57:30;15.50;99.90
9965;DHT22;5023;53.554;9.964;2022-07-10T22:02:33;15.60;99.90
9965;DHT22;5023;53.554;9.964;2022-07-10T22:07:37;15.50;99.90
9965;DHT22;5023;53.554;9.964;2022-07-10T22:12:42;15.50;99.90
9965;DHT22;5023;53.554;9.964;2022-07-10T22:17:44;15.40;99.90
9965;DHT22;5023;53.554;9.964;2022-07-10T22:22:47;15.30;99.90
9965;DHT22;5023;53.554;9.964;2022-07-10T22:27:51;15.20;99.90
9965;DHT22;5023;53.554;9.964;2022-07-10T22:32:55;15.30;99.90
9965;DHT22;5023;53.554;9.964;2022-07-10T22:37:57;15.20;99.90
9965;DHT22;5023;53.554;9.964;2022-07-10T22:43:01;15.10;99.90
9965;DHT22;5023;53.554;9.964;2022-07-10T22:48:03;15.10;99.90
9965;DHT22;5023;53.554;9.964;2022-07-10T22:53:05;15.00;99.90
9965;DHT22;5023;53.554;9.964;2022-07-10T22:58:09;15.00;99.90
9965;DHT22;5023;53.554;9.964;2022-07-10T23:03:11;14.90;99.90
9965;DHT22;5023;53.554;9.964;2022-07-10T23:08:14;14.80;99.90
9965;DHT22;5023;53.554;9.964;2022-07-10T23:13:19;14.70;99.90
9965;DHT22;5023;53.554;9.964;2022-07-10T23:18:21;14.80;99.90
9965;DHT22;5023;53.554;9.964;2022-07-10T23:23:24;14.70;99.90
9965;DHT22;5023;53.554;9.964;2022-07-10T23:28:27;14.70;99.90
9965;DHT22;5023;53.554;9.964;2022-07-10T23:33:30;14.70;99.90
9965;DHT22;5023;53.554;9.964;2022-07-10T23:38:34;14.60;99.90
9965;DHT22;5023;53.554;9.964;2022-07-10T23:43:38;14.60;99.90
9965;DHT22;5023;53.554;9.964;2022-07-10T23:48:40;14.60;99.90
9965;DHT22;5023;53.554;9.964;2022-07-10T23:53:59;14.60;99.90
9965;DHT22;5023;53.554;9.964;2022-07-10T23:59:03;14.50;99.90
